sensor_id;sensor_type;location;lat;lon;timestamp;P1;durP1;ratioP1;P2;durP2;ratioP2
11453;SDS011;5783;55.174;61.310;2022-11-21T00:00:47;5.97;;;4.63;;
11453;SDS011;5783;55.174;61.310;2022-11-21T00:03:17;6.73;;;4.83;;
11453;SDS011;5783;55.174;61.310;2022-11-21T00:05:49;5.90;;;4.73;;
11453;SDS011;5783;55.174;61.310;2022-11-21T00:08:19;5.50;;;4.70;;
11453;SDS011;5783;55.174;61.310;2022-11-21T00:10:49;6.17;;;5.00;;
11453;SDS011;5783;55.174;61.310;2022-11-21T00:13:19;6.70;;;4.93;;
11453;SDS011;5783;55.174;61.310;2022-11-21T00:15:48;8.93;;;5.23;;
11453;SDS011;5783;55.174;61.310;2022-11-21T00:18:17;7.00;;;5.33;;
11453;SDS011;5783;55.174;61.310;2022-11-21T00:20:46;6.80;;;4.90;;
11453;SDS011;5783;55.174;61.310;2022-11-21T00:23:15;6.53;;;4.67;;
11453;SDS011;5783;55.174;61.310;2022-11-21T00:25:44;6.83;;;5.13;;
11453;SDS011;5783;55.174;61.310;2022-11-21T00:28:14;6.67;;;5.07;;
11453;SDS011;5783;55.174;61.310;2022-11-21T00:30:43;6.60;;;5.20;;
11453;SDS011;5783;55.174;61.310;2022-11-21T00:33:12;6.17;;;4.90;;
11453;SDS011;5783;55.174;61.310;2022-11-21T00:35:41;6.40;;;4.90;;
11453;SDS011;5783;55.174;61.310;2022-11-21T00:38:10;6.53;;;4.90;;
11453;SDS011;5783;55.174;61.310;2022-11-21T00:40:41;5.67;;;4.50;;
11453;SDS011;5783;55.174;61.310;2022-11-21T00:43:11;6.03;;;4.70;;
11453;SDS011;5783;55.174;61.310;2022-11-21T00:45:40;5.90;;;4.50;;
11453;SDS011;5783;55.174;61.310;2022-11-21T00:48:09;6.20;;;4.63;;
11453;SDS011;5783;55.174;61.310;2022-11-21T00:50:38;5.00;;;4.27;;
11453;SDS011;5783;55.174;61.310;2022-11-21T00:53:07;6.00;;;4.70;;
11453;SDS011;5783;55.174;61.310;2022-11-21T00:55:36;5.63;;;4.70;;
11453;SDS011;5783;55.174;61.310;2022-11-21T00:58:05;5.57;;;4.27;;
11453;SDS011;5783;55.174;61.310;2022-11-21T01:00:35;6.27;;;4.50;;
11453;SDS011;5783;55.174;61.310;2022-11-21T01:03:04;5.53;;;4.40;;
11453;SDS011;5783;55.174;61.310;2022-11-21T01:05:33;5.33;;;4.33;;
11453;SDS011;5783;55.174;61.310;2022-11-21T01:08:02;5.90;;;4.77;;
11453;SDS011;5783;55.174;61.310;2022-11-21T01:10:32;6.43;;;4.53;;
11453;SDS011;5783;55.174;61.310;2022-11-21T01:13:02;5.47;;;4.37;;
11453;SDS011;5783;55.174;61.310;2022-11-21T01:15:32;6.13;;;4.40;;
11453;SDS011;5783;55.174;61.310;2022-11-21T01:18:02;5.30;;;4.30;;
11453;SDS011;5783;55.174;61.310;2022-11-21T01:20:31;5.43;;;4.20;;
11453;SDS011;5783;55.174;61.310;2022-11-21T01:23:00;4.93;;;4.20;;
11453;SDS011;5783;55.174;61.310;2022-11-21T01:25:29;7.10;;;4.53;;
11453;SDS011;5783;55.174;61.310;2022-11-21T01:28:00;5.97;;;4.53;;
11453;SDS011;5783;55.174;61.310;2022-11-21T01:30:29;4.97;;;4.07;;
11453;SDS011;5783;55.174;61.310;2022-11-21T01:32:58;6.13;;;4.30;;
11453;SDS011;5783;55.174;61.310;2022-11-21T01:35:27;5.00;;;4.13;;
11453;SDS011;5783;55.174;61.310;2022-11-21T01:37:56;6.97;;;4.50;;
11453;SDS011;5783;55.174;61.310;2022-11-21T01:40:25;5.73;;;4.50;;
11453;SDS011;5783;55.174;61.310;2022-11-21T01:54:51;5.13;;;3.97;;
11453;SDS011;5783;55.174;61.310;2022-11-21T02:03:04;5.40;;;4.43;;
11453;SDS011;5783;55.174;61.310;2022-11-21T02:05:35;5.23;;;4.20;;
11453;SDS011;5783;55.174;61.310;2022-11-21T02:11:01;4.60;;;3.97;;
11453;SDS011;5783;55.174;61.310;2022-11-21T02:13:29;4.77;;;3.80;;
11453;SDS011;5783;55.174;61.310;2022-11-21T02:15:58;5.10;;;3.80;;
11453;SDS011;5783;55.174;61.310;2022-11-21T02:18:29;5.27;;;4.20;;
11453;SDS011;5783;55.174;61.310;2022-11-21T02:21:01;4.67;;;3.73;;
11453;SDS011;5783;55.174;61.310;2022-11-21T02:24:22;4.17;;;3.77;;
11453;SDS011;5783;55.174;61.310;2022-11-21T02:26:39;5.67;;;4.07;;
11453;SDS011;5783;55.174;61.310;2022-11-21T02:29:08;5.10;;;4.00;;
11453;SDS011;5783;55.174;61.310;2022-11-21T02:31:37;5.40;;;4.03;;
11453;SDS011;5783;55.174;61.310;2022-11-21T02:34:06;5.20;;;4.17;;
11453;SDS011;5783;55.174;61.310;2022-11-21T02:37:11;4.60;;;3.83;;
11453;SDS011;5783;55.174;61.310;2022-11-21T02:41:43;4.80;;;3.73;;
11453;SDS011;5783;55.174;61.310;2022-11-21T02:47:03;4.63;;;3.53;;
11453;SDS011;5783;55.174;61.310;2022-11-21T02:52:23;5.13;;;3.83;;
11453;SDS011;5783;55.174;61.310;2022-11-21T02:54:52;4.73;;;3.67;;
11453;SDS011;5783;55.174;61.310;2022-11-21T02:57:21;5.40;;;3.87;;
11453;SDS011;5783;55.174;61.310;2022-11-21T02:59:50;5.87;;;4.07;;
11453;SDS011;5783;55.174;61.310;2022-11-21T03:02:19;4.43;;;3.70;;
11453;SDS011;5783;55.174;61.310;2022-11-21T03:04:48;5.37;;;3.93;;
11453;SDS011;5783;55.174;61.310;2022-11-21T03:07:18;4.87;;;3.97;;
11453;SDS011;5783;55.174;61.310;2022-11-21T03:09:47;4.70;;;3.90;;
11453;SDS011;5783;55.174;61.310;2022-11-21T03:12:16;5.40;;;4.03;;
11453;SDS011;5783;55.174;61.310;2022-11-21T03:14:45;4.93;;;3.90;;
11453;SDS011;5783;55.174;61.310;2022-11-21T03:17:14;4.60;;;3.70;;
11453;SDS011;5783;55.174;61.310;2022-11-21T03:19:43;4.67;;;3.83;;
11453;SDS011;5783;55.174;61.310;2022-11-21T03:22:12;5.23;;;3.77;;
11453;SDS011;5783;55.174;61.310;2022-11-21T03:24:43;5.30;;;3.83;;
11453;SDS011;5783;55.174;61.310;2022-11-21T03:27:12;4.40;;;3.80;;
11453;SDS011;5783;55.174;61.310;2022-11-21T03:29:41;4.60;;;3.50;;
11453;SDS011;5783;55.174;61.310;2022-11-21T03:32:10;6.10;;;4.10;;
11453;SDS011;5783;55.174;61.310;2022-11-21T03:34:39;6.20;;;3.90;;
11453;SDS011;5783;55.174;61.310;2022-11-21T03:37:08;5.67;;;3.87;;
11453;SDS011;5783;55.174;61.310;2022-11-21T03:39:37;5.67;;;3.90;;
11453;SDS011;5783;55.174;61.310;2022-11-21T03:42:06;5.40;;;3.73;;
11453;SDS011;5783;55.174;61.310;2022-11-21T03:44:36;4.93;;;3.70;;
11453;SDS011;5783;55.174;61.310;2022-11-21T03:47:05;4.70;;;3.70;;
11453;SDS011;5783;55.174;61.310;2022-11-21T03:49:34;4.77;;;3.90;;
11453;SDS011;5783;55.174;61.310;2022-11-21T03:52:03;4.23;;;3.23;;
11453;SDS011;5783;55.174;61.310;2022-11-21T03:54:32;4.80;;;3.60;;
11453;SDS011;5783;55.174;61.310;2022-11-21T03:57:01;4.43;;;3.80;;
11453;SDS011;5783;55.174;61.310;2022-11-21T03:59:30;3.93;;;3.53;;
11453;SDS011;5783;55.174;61.310;2022-11-21T04:02:00;4.33;;;3.63;;
11453;SDS011;5783;55.174;61.310;2022-11-21T04:04:29;4.10;;;3.53;;
11453;SDS011;5783;55.174;61.310;2022-11-21T04:06:58;4.47;;;3.57;;
11453;SDS011;5783;55.174;61.310;2022-11-21T04:09:27;4.40;;;3.40;;
11453;SDS011;5783;55.174;61.310;2022-11-21T04:11:56;4.23;;;3.50;;
11453;SDS011;5783;55.174;61.310;2022-11-21T04:14:25;4.50;;;3.20;;
11453;SDS011;5783;55.174;61.310;2022-11-21T04:16:54;5.43;;;3.80;;
11453;SDS011;5783;55.174;61.310;2022-11-21T04:19:23;4.10;;;3.43;;
11453;SDS011;5783;55.174;61.310;2022-11-21T04:21:52;5.23;;;3.70;;
11453;SDS011;5783;55.174;61.310;2022-11-21T04:24:21;4.67;;;3.63;;
11453;SDS011;5783;55.174;61.310;2022-11-21T04:26:52;6.90;;;4.07;;
11453;SDS011;5783;55.174;61.310;2022-11-21T04:29:22;5.17;;;3.50;;
11453;SDS011;5783;55.174;61.310;2022-11-21T04:31:51;4.53;;;3.10;;
11453;SDS011;5783;55.174;61.310;2022-11-21T04:34:20;4.30;;;3.60;;
11453;SDS011;5783;55.174;61.310;2022-11-21T04:36:49;8.00;;;4.30;;
11453;SDS011;5783;55.174;61.310;2022-11-21T04:39:18;8.47;;;4.20;;
11453;SDS011;5783;55.174;61.310;2022-11-21T04:41:47;5.53;;;4.10;;
11453;SDS011;5783;55.174;61.310;2022-11-21T04:44:16;7.53;;;4.20;;
11453;SDS011;5783;55.174;61.310;2022-11-21T04:46:47;7.63;;;4.73;;
11453;SDS011;5783;55.174;61.310;2022-11-21T04:49:18;5.10;;;4.20;;
11453;SDS011;5783;55.174;61.310;2022-11-21T04:51:47;5.97;;;4.43;;
11453;SDS011;5783;55.174;61.310;2022-11-21T04:54:16;5.93;;;4.70;;
11453;SDS011;5783;55.174;61.310;2022-11-21T04:56:45;6.77;;;4.57;;
11453;SDS011;5783;55.174;61.310;2022-11-21T04:59:14;5.93;;;4.50;;
11453;SDS011;5783;55.174;61.310;2022-11-21T05:01:43;6.53;;;4.97;;
11453;SDS011;5783;55.174;61.310;2022-11-21T05:04:12;8.63;;;6.70;;
11453;SDS011;5783;55.174;61.310;2022-11-21T05:06:42;12.80;;;8.93;;
11453;SDS011;5783;55.174;61.310;2022-11-21T05:09:15;21.70;;;15.67;;
11453;SDS011;5783;55.174;61.310;2022-11-21T05:11:44;24.70;;;18.33;;
11453;SDS011;5783;55.174;61.310;2022-11-21T05:14:33;20.03;;;14.50;;
11453;SDS011;5783;55.174;61.310;2022-11-21T05:17:02;16.63;;;11.90;;
11453;SDS011;5783;55.174;61.310;2022-11-21T05:19:31;13.67;;;9.57;;
11453;SDS011;5783;55.174;61.310;2022-11-21T05:22:00;13.37;;;8.90;;
11453;SDS011;5783;55.174;61.310;2022-11-21T05:24:29;11.17;;;7.93;;
11453;SDS011;5783;55.174;61.310;2022-11-21T05:26:58;10.53;;;7.30;;
11453;SDS011;5783;55.174;61.310;2022-11-21T05:29:27;9.43;;;7.43;;
11453;SDS011;5783;55.174;61.310;2022-11-21T05:31:57;8.40;;;6.90;;
11453;SDS011;5783;55.174;61.310;2022-11-21T05:34:26;9.37;;;6.43;;
11453;SDS011;5783;55.174;61.310;2022-11-21T05:36:55;8.60;;;6.13;;
11453;SDS011;5783;55.174;61.310;2022-11-21T05:39:24;7.70;;;6.40;;
11453;SDS011;5783;55.174;61.310;2022-11-21T05:41:54;9.63;;;6.73;;
11453;SDS011;5783;55.174;61.310;2022-11-21T05:44:23;9.37;;;6.37;;
11453;SDS011;5783;55.174;61.310;2022-11-21T05:46:52;7.30;;;5.57;;
11453;SDS011;5783;55.174;61.310;2022-11-21T05:49:21;7.53;;;5.50;;
11453;SDS011;5783;55.174;61.310;2022-11-21T05:51:50;8.67;;;5.57;;
11453;SDS011;5783;55.174;61.310;2022-11-21T05:54:20;8.87;;;6.00;;
11453;SDS011;5783;55.174;61.310;2022-11-21T05:56:49;8.23;;;6.00;;
11453;SDS011;5783;55.174;61.310;2022-11-21T05:59:18;8.47;;;5.67;;
11453;SDS011;5783;55.174;61.310;2022-11-21T06:01:47;7.20;;;5.70;;
11453;SDS011;5783;55.174;61.310;2022-11-21T06:04:35;8.67;;;5.77;;
11453;SDS011;5783;55.174;61.310;2022-11-21T06:07:05;6.87;;;5.37;;
11453;SDS011;5783;55.174;61.310;2022-11-21T06:09:34;5.97;;;4.77;;
11453;SDS011;5783;55.174;61.310;2022-11-21T06:12:04;8.63;;;5.20;;
11453;SDS011;5783;55.174;61.310;2022-11-21T06:14:33;7.13;;;5.03;;
11453;SDS011;5783;55.174;61.310;2022-11-21T06:17:02;6.60;;;4.80;;
11453;SDS011;5783;55.174;61.310;2022-11-21T06:19:31;6.83;;;5.27;;
11453;SDS011;5783;55.174;61.310;2022-11-21T06:22:00;6.30;;;5.07;;
11453;SDS011;5783;55.174;61.310;2022-11-21T06:24:29;7.33;;;5.13;;
11453;SDS011;5783;55.174;61.310;2022-11-21T06:26:59;5.40;;;4.77;;
11453;SDS011;5783;55.174;61.310;2022-11-21T06:29:28;7.53;;;4.80;;
11453;SDS011;5783;55.174;61.310;2022-11-21T06:31:57;6.43;;;4.37;;
11453;SDS011;5783;55.174;61.310;2022-11-21T06:34:26;6.97;;;4.67;;
11453;SDS011;5783;55.174;61.310;2022-11-21T06:36:55;6.60;;;4.70;;
11453;SDS011;5783;55.174;61.310;2022-11-21T06:39:24;5.50;;;4.50;;
11453;SDS011;5783;55.174;61.310;2022-11-21T06:41:53;6.10;;;4.30;;
11453;SDS011;5783;55.174;61.310;2022-11-21T06:44:24;6.33;;;4.43;;
11453;SDS011;5783;55.174;61.310;2022-11-21T06:46:53;5.63;;;4.20;;
11453;SDS011;5783;55.174;61.310;2022-11-21T06:49:22;5.50;;;4.27;;
11453;SDS011;5783;55.174;61.310;2022-11-21T06:51:51;5.23;;;4.00;;
11453;SDS011;5783;55.174;61.310;2022-11-21T06:54:20;5.47;;;4.30;;
11453;SDS011;5783;55.174;61.310;2022-11-21T06:56:50;5.73;;;4.00;;
11453;SDS011;5783;55.174;61.310;2022-11-21T06:59:20;5.47;;;4.07;;
11453;SDS011;5783;55.174;61.310;2022-11-21T07:01:49;5.73;;;4.13;;
11453;SDS011;5783;55.174;61.310;2022-11-21T07:04:18;7.77;;;4.47;;
11453;SDS011;5783;55.174;61.310;2022-11-21T07:06:48;6.50;;;4.43;;
11453;SDS011;5783;55.174;61.310;2022-11-21T07:09:17;5.80;;;4.27;;
11453;SDS011;5783;55.174;61.310;2022-11-21T07:11:46;7.03;;;4.60;;
11453;SDS011;5783;55.174;61.310;2022-11-21T07:14:16;6.77;;;4.43;;
11453;SDS011;5783;55.174;61.310;2022-11-21T07:16:45;6.23;;;4.20;;
11453;SDS011;5783;55.174;61.310;2022-11-21T07:19:14;7.17;;;4.10;;
11453;SDS011;5783;55.174;61.310;2022-11-21T07:21:43;5.93;;;4.03;;
11453;SDS011;5783;55.174;61.310;2022-11-21T07:24:13;6.00;;;4.43;;
11453;SDS011;5783;55.174;61.310;2022-11-21T07:26:42;7.47;;;4.03;;
11453;SDS011;5783;55.174;61.310;2022-11-21T07:29:11;5.70;;;3.77;;
11453;SDS011;5783;55.174;61.310;2022-11-21T07:31:40;7.80;;;4.20;;
11453;SDS011;5783;55.174;61.310;2022-11-21T07:34:09;6.37;;;4.20;;
11453;SDS011;5783;55.174;61.310;2022-11-21T07:36:38;7.23;;;4.10;;
11453;SDS011;5783;55.174;61.310;2022-11-21T07:39:08;5.60;;;3.87;;
11453;SDS011;5783;55.174;61.310;2022-11-21T07:41:37;4.87;;;3.60;;
11453;SDS011;5783;55.174;61.310;2022-11-21T07:44:06;6.70;;;4.20;;
11453;SDS011;5783;55.174;61.310;2022-11-21T07:46:36;6.40;;;3.57;;
11453;SDS011;5783;55.174;61.310;2022-11-21T07:49:05;7.33;;;3.60;;
11453;SDS011;5783;55.174;61.310;2022-11-21T07:51:34;5.87;;;3.80;;
11453;SDS011;5783;55.174;61.310;2022-11-21T07:54:04;5.60;;;3.87;;
11453;SDS011;5783;55.174;61.310;2022-11-21T07:56:33;5.27;;;3.40;;
11453;SDS011;5783;55.174;61.310;2022-11-21T07:59:02;6.97;;;3.63;;
11453;SDS011;5783;55.174;61.310;2022-11-21T08:01:31;6.20;;;3.77;;
11453;SDS011;5783;55.174;61.310;2022-11-21T08:04:00;4.60;;;3.40;;
11453;SDS011;5783;55.174;61.310;2022-11-21T08:06:30;5.33;;;3.47;;
11453;SDS011;5783;55.174;61.310;2022-11-21T08:08:59;5.33;;;3.80;;
11453;SDS011;5783;55.174;61.310;2022-11-21T08:11:28;6.70;;;3.93;;
11453;SDS011;5783;55.174;61.310;2022-11-21T08:13:57;7.03;;;3.90;;
11453;SDS011;5783;55.174;61.310;2022-11-21T08:16:26;6.60;;;3.80;;
11453;SDS011;5783;55.174;61.310;2022-11-21T08:18:58;5.67;;;3.77;;
11453;SDS011;5783;55.174;61.310;2022-11-21T08:21:28;4.93;;;3.70;;
11453;SDS011;5783;55.174;61.310;2022-11-21T08:23:57;5.33;;;3.77;;
11453;SDS011;5783;55.174;61.310;2022-11-21T08:26:26;5.50;;;3.73;;
11453;SDS011;5783;55.174;61.310;2022-11-21T08:28:55;5.23;;;3.93;;
11453;SDS011;5783;55.174;61.310;2022-11-21T08:31:24;5.83;;;4.00;;
11453;SDS011;5783;55.174;61.310;2022-11-21T08:36:42;6.67;;;3.90;;
11453;SDS011;5783;55.174;61.310;2022-11-21T08:39:11;5.53;;;3.80;;
11453;SDS011;5783;55.174;61.310;2022-11-21T08:41:40;5.97;;;3.83;;
11453;SDS011;5783;55.174;61.310;2022-11-21T08:44:29;8.97;;;3.80;;
11453;SDS011;5783;55.174;61.310;2022-11-21T08:47:00;6.73;;;4.03;;
11453;SDS011;5783;55.174;61.310;2022-11-21T08:49:31;5.67;;;3.87;;
11453;SDS011;5783;55.174;61.310;2022-11-21T08:52:00;5.47;;;3.60;;
11453;SDS011;5783;55.174;61.310;2022-11-21T08:54:29;6.37;;;3.93;;
11453;SDS011;5783;55.174;61.310;2022-11-21T08:56:58;5.47;;;3.87;;
11453;SDS011;5783;55.174;61.310;2022-11-21T08:59:28;7.53;;;3.97;;
11453;SDS011;5783;55.174;61.310;2022-11-21T09:01:57;4.83;;;3.60;;
11453;SDS011;5783;55.174;61.310;2022-11-21T09:04:26;5.43;;;3.63;;
11453;SDS011;5783;55.174;61.310;2022-11-21T09:06:55;8.70;;;3.80;;
11453;SDS011;5783;55.174;61.310;2022-11-21T09:09:25;7.30;;;4.03;;
11453;SDS011;5783;55.174;61.310;2022-11-21T09:11:54;5.77;;;3.87;;
11453;SDS011;5783;55.174;61.310;2022-11-21T09:14:23;5.33;;;3.83;;
11453;SDS011;5783;55.174;61.310;2022-11-21T09:17:12;7.23;;;4.43;;
11453;SDS011;5783;55.174;61.310;2022-11-21T09:19:43;5.37;;;4.10;;
11453;SDS011;5783;55.174;61.310;2022-11-21T09:22:12;7.23;;;4.50;;
11453;SDS011;5783;55.174;61.310;2022-11-21T09:24:41;6.53;;;4.67;;
11453;SDS011;5783;55.174;61.310;2022-11-21T09:27:10;6.17;;;4.27;;
11453;SDS011;5783;55.174;61.310;2022-11-21T09:29:39;7.67;;;4.70;;
11453;SDS011;5783;55.174;61.310;2022-11-21T09:32:09;6.53;;;4.67;;
11453;SDS011;5783;55.174;61.310;2022-11-21T09:34:38;6.87;;;4.70;;
11453;SDS011;5783;55.174;61.310;2022-11-21T09:37:07;5.80;;;4.30;;
11453;SDS011;5783;55.174;61.310;2022-11-21T09:39:36;7.70;;;4.50;;
11453;SDS011;5783;55.174;61.310;2022-11-21T09:42:09;6.27;;;4.50;;
11453;SDS011;5783;55.174;61.310;2022-11-21T09:47:46;7.90;;;4.90;;
11453;SDS011;5783;55.174;61.310;2022-11-21T09:56:35;6.10;;;4.77;;
11453;SDS011;5783;55.174;61.310;2022-11-21T10:02:02;5.33;;;4.50;;
11453;SDS011;5783;55.174;61.310;2022-11-21T10:04:52;6.77;;;4.80;;
11453;SDS011;5783;55.174;61.310;2022-11-21T10:25:38;6.63;;;4.67;;
11453;SDS011;5783;55.174;61.310;2022-11-21T10:31:01;6.77;;;4.87;;
11453;SDS011;5783;55.174;61.310;2022-11-21T10:33:33;7.43;;;5.30;;
11453;SDS011;5783;55.174;61.310;2022-11-21T10:36:38;7.30;;;5.23;;
11453;SDS011;5783;55.174;61.310;2022-11-21T10:38:57;7.50;;;4.93;;
11453;SDS011;5783;55.174;61.310;2022-11-21T10:44:53;7.20;;;5.23;;
11453;SDS011;5783;55.174;61.310;2022-11-21T10:53:24;8.63;;;5.60;;
11453;SDS011;5783;55.174;61.310;2022-11-21T10:56:13;6.43;;;4.63;;
11453;SDS011;5783;55.174;61.310;2022-11-21T11:01:35;9.40;;;5.60;;
11453;SDS011;5783;55.174;61.310;2022-11-21T11:04:05;8.40;;;5.90;;
11453;SDS011;5783;55.174;61.310;2022-11-21T11:06:37;7.50;;;5.60;;
11453;SDS011;5783;55.174;61.310;2022-11-21T11:15:11;9.10;;;5.50;;
11453;SDS011;5783;55.174;61.310;2022-11-21T11:17:40;7.20;;;5.27;;
11453;SDS011;5783;55.174;61.310;2022-11-21T11:23:13;7.17;;;5.30;;
11453;SDS011;5783;55.174;61.310;2022-11-21T11:25:33;7.77;;;6.03;;
11453;SDS011;5783;55.174;61.310;2022-11-21T11:28:05;9.20;;;5.63;;
11453;SDS011;5783;55.174;61.310;2022-11-21T11:30:35;6.97;;;5.80;;
11453;SDS011;5783;55.174;61.310;2022-11-21T11:36:14;9.33;;;5.70;;
11453;SDS011;5783;55.174;61.310;2022-11-21T11:45:10;7.20;;;5.60;;
11453;SDS011;5783;55.174;61.310;2022-11-21T11:48:14;10.27;;;6.10;;
11453;SDS011;5783;55.174;61.310;2022-11-21T11:50:47;9.00;;;5.80;;
11453;SDS011;5783;55.174;61.310;2022-11-21T12:05:20;9.53;;;6.00;;
11453;SDS011;5783;55.174;61.310;2022-11-21T12:10:25;7.63;;;6.17;;
11453;SDS011;5783;55.174;61.310;2022-11-21T12:13:33;8.40;;;5.70;;
11453;SDS011;5783;55.174;61.310;2022-11-21T12:16:05;8.53;;;6.07;;
11453;SDS011;5783;55.174;61.310;2022-11-21T12:18:39;9.73;;;6.50;;
11453;SDS011;5783;55.174;61.310;2022-11-21T12:21:26;8.07;;;5.80;;
11453;SDS011;5783;55.174;61.310;2022-11-21T12:23:56;9.23;;;6.23;;
11453;SDS011;5783;55.174;61.310;2022-11-21T12:38:13;7.57;;;5.20;;
11453;SDS011;5783;55.174;61.310;2022-11-21T13:03:24;5.93;;;4.70;;
11453;SDS011;5783;55.174;61.310;2022-11-21T13:09:01;8.17;;;5.43;;
11453;SDS011;5783;55.174;61.310;2022-11-21T13:29:28;7.57;;;5.13;;
11453;SDS011;5783;55.174;61.310;2022-11-21T13:31:57;7.33;;;5.20;;
11453;SDS011;5783;55.174;61.310;2022-11-21T13:46:07;6.87;;;4.77;;
11453;SDS011;5783;55.174;61.310;2022-11-21T13:48:40;4.77;;;4.27;;
11453;SDS011;5783;55.174;61.310;2022-11-21T14:09:22;6.23;;;4.70;;
11453;SDS011;5783;55.174;61.310;2022-11-21T14:20:26;5.87;;;4.27;;
11453;SDS011;5783;55.174;61.310;2022-11-21T14:29:14;5.77;;;4.27;;
11453;SDS011;5783;55.174;61.310;2022-11-21T14:31:27;6.57;;;4.63;;
11453;SDS011;5783;55.174;61.310;2022-11-21T14:33:58;8.00;;;4.63;;
11453;SDS011;5783;55.174;61.310;2022-11-21T14:36:27;5.30;;;4.50;;
11453;SDS011;5783;55.174;61.310;2022-11-21T14:38:58;5.70;;;4.33;;
11453;SDS011;5783;55.174;61.310;2022-11-21T14:41:29;6.53;;;4.67;;
11453;SDS011;5783;55.174;61.310;2022-11-21T14:44:19;6.03;;;4.30;;
11453;SDS011;5783;55.174;61.310;2022-11-21T14:46:49;6.53;;;4.20;;
11453;SDS011;5783;55.174;61.310;2022-11-21T14:49:22;7.30;;;4.33;;
11453;SDS011;5783;55.174;61.310;2022-11-21T14:57:36;5.73;;;3.83;;
11453;SDS011;5783;55.174;61.310;2022-11-21T15:00:07;6.30;;;3.93;;
11453;SDS011;5783;55.174;61.310;2022-11-21T15:02:39;5.10;;;4.10;;
11453;SDS011;5783;55.174;61.310;2022-11-21T15:07:59;3.37;;;3.07;;
11453;SDS011;5783;55.174;61.310;2022-11-21T15:10:30;4.97;;;3.80;;
11453;SDS011;5783;55.174;61.310;2022-11-21T15:13:04;5.10;;;3.63;;
11453;SDS011;5783;55.174;61.310;2022-11-21T15:18:11;4.80;;;3.60;;
11453;SDS011;5783;55.174;61.310;2022-11-21T15:34:49;3.70;;;3.30;;
11453;SDS011;5783;55.174;61.310;2022-11-21T15:37:18;4.47;;;3.67;;
11453;SDS011;5783;55.174;61.310;2022-11-21T15:39:49;4.07;;;3.53;;
11453;SDS011;5783;55.174;61.310;2022-11-21T15:47:59;4.57;;;3.40;;
11453;SDS011;5783;55.174;61.310;2022-11-21T15:50:29;3.90;;;3.43;;
11453;SDS011;5783;55.174;61.310;2022-11-21T15:52:59;4.03;;;3.50;;
11453;SDS011;5783;55.174;61.310;2022-11-21T15:55:28;4.27;;;3.30;;
11453;SDS011;5783;55.174;61.310;2022-11-21T15:57:57;4.07;;;3.40;;
11453;SDS011;5783;55.174;61.310;2022-11-21T16:00:27;3.97;;;3.43;;
11453;SDS011;5783;55.174;61.310;2022-11-21T16:02:56;3.83;;;3.27;;
11453;SDS011;5783;55.174;61.310;2022-11-21T16:05:25;4.60;;;3.43;;
11453;SDS011;5783;55.174;61.310;2022-11-21T16:07:54;4.17;;;3.30;;
11453;SDS011;5783;55.174;61.310;2022-11-21T16:10:23;4.10;;;3.27;;
11453;SDS011;5783;55.174;61.310;2022-11-21T16:12:52;4.57;;;3.60;;
11453;SDS011;5783;55.174;61.310;2022-11-21T16:15:21;4.17;;;3.40;;
11453;SDS011;5783;55.174;61.310;2022-11-21T16:17:51;4.70;;;3.57;;
11453;SDS011;5783;55.174;61.310;2022-11-21T16:20:20;3.57;;;3.10;;
11453;SDS011;5783;55.174;61.310;2022-11-21T16:22:49;3.63;;;3.30;;
11453;SDS011;5783;55.174;61.310;2022-11-21T16:25:18;3.70;;;2.90;;
11453;SDS011;5783;55.174;61.310;2022-11-21T16:27:48;4.20;;;3.30;;
11453;SDS011;5783;55.174;61.310;2022-11-21T16:30:17;3.93;;;3.10;;
11453;SDS011;5783;55.174;61.310;2022-11-21T16:32:46;3.80;;;2.90;;
11453;SDS011;5783;55.174;61.310;2022-11-21T16:35:16;4.23;;;3.50;;
11453;SDS011;5783;55.174;61.310;2022-11-21T16:37:45;3.57;;;2.90;;
11453;SDS011;5783;55.174;61.310;2022-11-21T16:40:14;3.70;;;3.20;;
11453;SDS011;5783;55.174;61.310;2022-11-21T16:42:43;3.87;;;3.30;;
11453;SDS011;5783;55.174;61.310;2022-11-21T16:45:14;3.40;;;2.83;;
11453;SDS011;5783;55.174;61.310;2022-11-21T16:47:43;3.43;;;2.93;;
11453;SDS011;5783;55.174;61.310;2022-11-21T16:50:12;4.83;;;3.50;;
11453;SDS011;5783;55.174;61.310;2022-11-21T16:52:41;4.20;;;3.17;;
11453;SDS011;5783;55.174;61.310;2022-11-21T16:55:10;5.03;;;3.20;;
11453;SDS011;5783;55.174;61.310;2022-11-21T16:57:39;3.37;;;3.07;;
11453;SDS011;5783;55.174;61.310;2022-11-21T17:00:09;5.20;;;3.67;;
11453;SDS011;5783;55.174;61.310;2022-11-21T17:02:39;4.47;;;3.20;;
11453;SDS011;5783;55.174;61.310;2022-11-21T17:05:08;4.23;;;3.60;;
11453;SDS011;5783;55.174;61.310;2022-11-21T17:07:37;4.87;;;3.43;;
11453;SDS011;5783;55.174;61.310;2022-11-21T17:10:06;3.67;;;3.03;;
11453;SDS011;5783;55.174;61.310;2022-11-21T17:12:36;4.17;;;3.30;;
11453;SDS011;5783;55.174;61.310;2022-11-21T17:15:07;3.40;;;2.93;;
11453;SDS011;5783;55.174;61.310;2022-11-21T17:17:38;3.43;;;2.97;;
11453;SDS011;5783;55.174;61.310;2022-11-21T17:20:08;3.23;;;2.87;;
11453;SDS011;5783;55.174;61.310;2022-11-21T17:22:38;5.23;;;3.40;;
11453;SDS011;5783;55.174;61.310;2022-11-21T17:25:07;3.97;;;3.10;;
11453;SDS011;5783;55.174;61.310;2022-11-21T17:27:37;3.73;;;2.90;;
11453;SDS011;5783;55.174;61.310;2022-11-21T17:30:07;3.63;;;2.90;;
11453;SDS011;5783;55.174;61.310;2022-11-21T17:32:37;3.37;;;2.97;;
11453;SDS011;5783;55.174;61.310;2022-11-21T17:35:06;5.10;;;3.20;;
11453;SDS011;5783;55.174;61.310;2022-11-21T17:37:36;4.30;;;3.00;;
11453;SDS011;5783;55.174;61.310;2022-11-21T17:40:06;3.97;;;3.00;;
11453;SDS011;5783;55.174;61.310;2022-11-21T17:42:37;3.80;;;2.90;;
11453;SDS011;5783;55.174;61.310;2022-11-21T17:45:08;3.80;;;3.23;;
11453;SDS011;5783;55.174;61.310;2022-11-21T17:47:37;4.10;;;3.03;;
11453;SDS011;5783;55.174;61.310;2022-11-21T17:50:07;5.23;;;3.33;;
11453;SDS011;5783;55.174;61.310;2022-11-21T17:52:36;4.07;;;3.00;;
11453;SDS011;5783;55.174;61.310;2022-11-21T17:55:05;3.73;;;3.10;;
11453;SDS011;5783;55.174;61.310;2022-11-21T17:57:34;4.07;;;3.43;;
11453;SDS011;5783;55.174;61.310;2022-11-21T18:00:03;3.67;;;3.10;;
11453;SDS011;5783;55.174;61.310;2022-11-21T18:02:33;4.40;;;3.37;;
11453;SDS011;5783;55.174;61.310;2022-11-21T18:05:02;3.97;;;3.20;;
11453;SDS011;5783;55.174;61.310;2022-11-21T18:07:32;4.17;;;3.13;;
11453;SDS011;5783;55.174;61.310;2022-11-21T18:10:02;3.90;;;3.30;;
11453;SDS011;5783;55.174;61.310;2022-11-21T18:12:31;3.73;;;3.27;;
11453;SDS011;5783;55.174;61.310;2022-11-21T18:15:01;4.43;;;3.17;;
11453;SDS011;5783;55.174;61.310;2022-11-21T18:17:31;3.90;;;3.30;;
11453;SDS011;5783;55.174;61.310;2022-11-21T18:20:00;3.47;;;2.70;;
11453;SDS011;5783;55.174;61.310;2022-11-21T18:22:30;3.57;;;3.00;;
11453;SDS011;5783;55.174;61.310;2022-11-21T18:25:00;3.80;;;2.87;;
11453;SDS011;5783;55.174;61.310;2022-11-21T18:27:30;3.43;;;3.10;;
11453;SDS011;5783;55.174;61.310;2022-11-21T18:29:59;4.07;;;3.00;;
11453;SDS011;5783;55.174;61.310;2022-11-21T18:32:30;3.90;;;3.00;;
11453;SDS011;5783;55.174;61.310;2022-11-21T18:35:00;4.37;;;3.30;;
11453;SDS011;5783;55.174;61.310;2022-11-21T18:37:32;4.03;;;2.80;;
11453;SDS011;5783;55.174;61.310;2022-11-21T18:40:01;3.20;;;2.83;;
11453;SDS011;5783;55.174;61.310;2022-11-21T18:42:30;3.60;;;2.80;;
11453;SDS011;5783;55.174;61.310;2022-11-21T18:44:59;3.20;;;2.60;;
11453;SDS011;5783;55.174;61.310;2022-11-21T18:47:30;3.37;;;2.60;;
11453;SDS011;5783;55.174;61.310;2022-11-21T18:49:59;3.00;;;2.63;;
11453;SDS011;5783;55.174;61.310;2022-11-21T18:52:30;3.37;;;2.80;;
11453;SDS011;5783;55.174;61.310;2022-11-21T18:55:01;2.90;;;2.50;;
11453;SDS011;5783;55.174;61.310;2022-11-21T18:57:30;3.80;;;2.60;;
11453;SDS011;5783;55.174;61.310;2022-11-21T18:59:59;2.93;;;2.47;;
11453;SDS011;5783;55.174;61.310;2022-11-21T19:02:30;3.40;;;2.97;;
11453;SDS011;5783;55.174;61.310;2022-11-21T19:04:59;2.83;;;2.30;;
11453;SDS011;5783;55.174;61.310;2022-11-21T19:07:29;2.67;;;2.47;;